sensor_id;sensor_type;location;lat;lon;timestamp;temperature;humidity
21830;DHT22;11077;50.264;6.798;2023-02-28T00:01:33;-1.00;99.90
21830;DHT22;11077;50.264;6.798;2023-02-28T00:04:00;-0.90;99.90
21830;DHT22;11077;50.264;6.798;2023-02-28T00:06:29;-0.90;99.90
21830;DHT22;11077;50.264;6.798;2023-02-28T00:08:57;-0.90;99.90
21830;DHT22;11077;50.264;6.798;2023-02-28T00:11:24;-0.90;99.90
21830;DHT22;11077;50.264;6.798;2023-02-28T00:13:51;-0.90;99.90
21830;DHT22;11077;50.264;6.798;2023-02-28T00:16:19;-1.00;99.90
21830;DHT22;11077;50.264;6.798;2023-02-28T00:18:47;-0.90;99.90
21830;DHT22;11077;50.264;6.798;2023-02-28T00:21:15;-1.00;99.90
21830;DHT22;11077;50.264;6.798;2023-02-28T00:23:44;-1.00;99.90
21830;DHT22;11077;50.264;6.798;2023-02-28T00:26:11;-1.00;99.90
21830;DHT22;11077;50.264;6.798;2023-02-28T00:28:42;-0.90;99.90
21830;DHT22;11077;50.264;6.798;2023-02-28T00:31:09;-1.00;99.90
21830;DHT22;11077;50.264;6.798;2023-02-28T00:33:36;-1.00;99.90
21830;DHT22;11077;50.264;6.798;2023-02-28T00:36:05;-1.00;99.90
21830;DHT22;11077;50.264;6.798;2023-02-28T00:38:35;-1.00;99.90
21830;DHT22;11077;50.264;6.798;2023-02-28T00:41:04;-1.00;99.90
21830;DHT22;11077;50.264;6.798;2023-02-28T00:43:32;-1.00;99.90
21830;DHT22;11077;50.264;6.798;2023-02-28T00:45:59;-1.10;99.90
21830;DHT22;11077;50.264;6.798;2023-02-28T00:48:27;-1.10;99.90
21830;DHT22;11077;50.264;6.798;2023-02-28T00:50:54;-1.20;99.90
21830;DHT22;11077;50.264;6.798;2023-02-28T00:53:24;-1.10;99.90
21830;DHT22;11077;50.264;6.798;2023-02-28T00:55:52;-1.20;99.90
21830;DHT22;11077;50.264;6.798;2023-02-28T00:58:20;-1.20;99.90
21830;DHT22;11077;50.264;6.798;2023-02-28T01:00:47;-1.20;99.90
21830;DHT22;11077;50.264;6.798;2023-02-28T01:03:16;-1.20;99.90
21830;DHT22;11077;50.264;6.798;2023-02-28T01:05:44;-1.20;99.90
21830;DHT22;11077;50.264;6.798;2023-02-28T01:08:11;-1.30;99.90
21830;DHT22;11077;50.264;6.798;2023-02-28T01:10:39;-1.30;99.90
21830;DHT22;11077;50.264;6.798;2023-02-28T01:13:07;-1.30;99.90
21830;DHT22;11077;50.264;6.798;2023-02-28T01:15:38;-1.30;99.90
21830;DHT22;11077;50.264;6.798;2023-02-28T01:18:07;-1.40;99.90
21830;DHT22;11077;50.264;6.798;2023-02-28T01:20:36;-1.40;99.90
21830;DHT22;11077;50.264;6.798;2023-02-28T01:23:03;-1.40;99.90
21830;DHT22;11077;50.264;6.798;2023-02-28T01:25:30;-1.50;99.90
21830;DHT22;11077;50.264;6.798;2023-02-28T01:27:58;-1.50;99.90
21830;DHT22;11077;50.264;6.798;2023-02-28T01:30:26;-1.50;99.90
21830;DHT22;11077;50.264;6.798;2023-02-28T01:32:55;-1.50;99.90
21830;DHT22;11077;50.264;6.798;2023-02-28T01:35:22;-1.50;99.90
21830;DHT22;11077;50.264;6.798;2023-02-28T01:37:49;-1.40;99.90
21830;DHT22;11077;50.264;6.798;2023-02-28T01:40:16;-1.60;99.90
21830;DHT22;11077;50.264;6.798;2023-02-28T01:42:43;-1.60;99.90
21830;DHT22;11077;50.264;6.798;2023-02-28T01:45:20;-1.60;99.90
21830;DHT22;11077;50.264;6.798;2023-02-28T01:47:50;-1.70;99.90
21830;DHT22;11077;50.264;6.798;2023-02-28T01:50:21;-1.70;99.90
21830;DHT22;11077;50.264;6.798;2023-02-28T01:52:51;-1.70;99.90
21830;DHT22;11077;50.264;6.798;2023-02-28T01:55:20;-1.70;99.90
21830;DHT22;11077;50.264;6.798;2023-02-28T01:57:52;-1.70;99.90
21830;DHT22;11077;50.264;6.798;2023-02-28T02:00:24;-1.80;99.90
21830;DHT22;11077;50.264;6.798;2023-02-28T02:02:55;-1.80;99.90
21830;DHT22;11077;50.264;6.798;2023-02-28T02:05:27;-1.80;99.90
21830;DHT22;11077;50.264;6.798;2023-02-28T02:08:01;-1.80;99.90
21830;DHT22;11077;50.264;6.798;2023-02-28T02:10:32;-1.90;99.90
21830;DHT22;11077;50.264;6.798;2023-02-28T02:16:16;-1.90;99.90
21830;DHT22;11077;50.264;6.798;2023-02-28T02:18:50;-1.90;99.90
21830;DHT22;11077;50.264;6.798;2023-02-28T02:24:49;-1.90;99.90
21830;DHT22;11077;50.264;6.798;2023-02-28T02:27:25;-1.90;99.90
21830;DHT22;11077;50.264;6.798;2023-02-28T02:30:18;-1.90;99.90
21830;DHT22;11077;50.264;6.798;2023-02-28T02:33:06;-1.90;99.90
21830;DHT22;11077;50.264;6.798;2023-02-28T02:35:42;-1.90;99.90
21830;DHT22;11077;50.264;6.798;2023-02-28T02:38:16;-1.90;99.90
21830;DHT22;11077;50.264;6.798;2023-02-28T02:40:53;-1.90;99.90
21830;DHT22;11077;50.264;6.798;2023-02-28T02:43:26;-1.90;99.90
21830;DHT22;11077;50.264;6.798;2023-02-28T02:45:58;-1.90;99.90
21830;DHT22;11077;50.264;6.798;2023-02-28T02:48:31;-1.90;99.90
21830;DHT22;11077;50.264;6.798;2023-02-28T02:51:06;-1.90;99.90
21830;DHT22;11077;50.264;6.798;2023-02-28T02:53:44;-1.90;99.90
21830;DHT22;11077;50.264;6.798;2023-02-28T02:56:16;-1.90;99.90
21830;DHT22;11077;50.264;6.798;2023-02-28T03:14:42;-2.20;99.90
21830;DHT22;11077;50.264;6.798;2023-02-28T03:17:28;-2.20;99.90
21830;DHT22;11077;50.264;6.798;2023-02-28T03:20:04;-2.20;99.90
21830;DHT22;11077;50.264;6.798;2023-02-28T03:22:46;-2.30;99.90
21830;DHT22;11077;50.264;6.798;2023-02-28T03:25:22;-2.30;99.90
21830;DHT22;11077;50.264;6.798;2023-02-28T03:28:00;-2.40;99.90
21830;DHT22;11077;50.264;6.798;2023-02-28T04:22:25;-3.40;99.90
21830;DHT22;11077;50.264;6.798;2023-02-28T04:24:52;-3.40;99.90
21830;DHT22;11077;50.264;6.798;2023-02-28T04:27:20;-3.40;99.90
21830;DHT22;11077;50.264;6.798;2023-02-28T04:29:47;-3.40;99.90
21830;DHT22;11077;50.264;6.798;2023-02-28T04:32:14;-3.40;99.90
21830;DHT22;11077;50.264;6.798;2023-02-28T04:34:41;-3.50;99.90
21830;DHT22;11077;50.264;6.798;2023-02-28T04:37:08;-3.60;99.90
21830;DHT22;11077;50.264;6.798;2023-02-28T04:39:37;-3.60;99.90
21830;DHT22;11077;50.264;6.798;2023-02-28T04:42:05;-3.60;99.90
21830;DHT22;11077;50.264;6.798;2023-02-28T04:44:32;-3.60;99.90
21830;DHT22;11077;50.264;6.798;2023-02-28T04:46:59;-3.60;99.90
21830;DHT22;11077;50.264;6.798;2023-02-28T04:49:26;-3.60;99.90
21830;DHT22;11077;50.264;6.798;2023-02-28T04:51:53;-3.60;99.90
21830;DHT22;11077;50.264;6.798;2023-02-28T04:54:21;-3.70;99.90
21830;DHT22;11077;50.264;6.798;2023-02-28T04:56:49;-3.80;99.90
21830;DHT22;11077;50.264;6.798;2023-02-28T04:59:17;-3.70;99.90
21830;DHT22;11077;50.264;6.798;2023-02-28T05:01:46;-3.80;99.90
21830;DHT22;11077;50.264;6.798;2023-02-28T05:04:14;-3.90;99.90
21830;DHT22;11077;50.264;6.798;2023-02-28T05:06:41;-3.80;99.90
21830;DHT22;11077;50.264;6.798;2023-02-28T05:09:08;-3.80;99.90
21830;DHT22;11077;50.264;6.798;2023-02-28T05:11:37;-3.80;99.90
21830;DHT22;11077;50.264;6.798;2023-02-28T05:14:09;-3.90;99.90
21830;DHT22;11077;50.264;6.798;2023-02-28T05:16:36;-3.90;99.90
21830;DHT22;11077;50.264;6.798;2023-02-28T05:19:04;-4.00;99.90
21830;DHT22;11077;50.264;6.798;2023-02-28T05:21:32;-4.00;99.90
21830;DHT22;11077;50.264;6.798;2023-02-28T05:24:02;-4.00;99.90
21830;DHT22;11077;50.264;6.798;2023-02-28T05:26:30;-4.00;99.90
21830;DHT22;11077;50.264;6.798;2023-02-28T05:28:57;-4.10;99.90
21830;DHT22;11077;50.264;6.798;2023-02-28T05:31:25;-4.10;99.90
21830;DHT22;11077;50.264;6.798;2023-02-28T05:33:53;-4.10;99.90
21830;DHT22;11077;50.264;6.798;2023-02-28T05:36:21;-4.10;99.90
21830;DHT22;11077;50.264;6.798;2023-02-28T05:38:51;-4.10;99.90
21830;DHT22;11077;50.264;6.798;2023-02-28T05:41:19;-4.10;99.90
21830;DHT22;11077;50.264;6.798;2023-02-28T05:43:47;-4.10;99.90
21830;DHT22;11077;50.264;6.798;2023-02-28T05:46:15;-4.20;99.90
21830;DHT22;11077;50.264;6.798;2023-02-28T05:48:47;-4.20;99.90
21830;DHT22;11077;50.264;6.798;2023-02-28T05:51:15;-4.30;99.90
21830;DHT22;11077;50.264;6.798;2023-02-28T05:53:43;-4.30;99.90
21830;DHT22;11077;50.264;6.798;2023-02-28T05:56:10;-4.30;99.90
21830;DHT22;11077;50.264;6.798;2023-02-28T05:58:37;-4.30;99.90
21830;DHT22;11077;50.264;6.798;2023-02-28T06:01:21;-4.30;99.90
21830;DHT22;11077;50.264;6.798;2023-02-28T06:03:50;-4.30;99.90
21830;DHT22;11077;50.264;6.798;2023-02-28T06:06:17;-4.30;99.90
21830;DHT22;11077;50.264;6.798;2023-02-28T06:08:44;-4.30;99.90
21830;DHT22;11077;50.264;6.798;2023-02-28T06:11:11;-4.30;99.90
21830;DHT22;11077;50.264;6.798;2023-02-28T06:13:40;-4.30;99.90
21830;DHT22;11077;50.264;6.798;2023-02-28T06:16:08;-4.40;99.90
21830;DHT22;11077;50.264;6.798;2023-02-28T06:18:36;-4.40;99.90
21830;DHT22;11077;50.264;6.798;2023-02-28T06:21:05;-4.40;99.90
21830;DHT22;11077;50.264;6.798;2023-02-28T06:23:34;-4.20;99.90
21830;DHT22;11077;50.264;6.798;2023-02-28T06:26:01;-4.40;99.90
21830;DHT22;11077;50.264;6.798;2023-02-28T06:28:28;-4.50;99.90
21830;DHT22;11077;50.264;6.798;2023-02-28T06:30:56;-4.50;99.90
21830;DHT22;11077;50.264;6.798;2023-02-28T06:33:23;-4.40;99.90
21830;DHT22;11077;50.264;6.798;2023-02-28T06:35:51;-4.50;99.90
21830;DHT22;11077;50.264;6.798;2023-02-28T06:38:20;-4.50;99.90
21830;DHT22;11077;50.264;6.798;2023-02-28T06:40:53;-4.30;99.90
21830;DHT22;11077;50.264;6.798;2023-02-28T06:43:20;-4.50;99.90
21830;DHT22;11077;50.264;6.798;2023-02-28T06:45:53;-4.50;99.90
21830;DHT22;11077;50.264;6.798;2023-02-28T06:48:23;-4.40;99.90
21830;DHT22;11077;50.264;6.798;2023-02-28T06:50:50;-4.50;99.90
21830;DHT22;11077;50.264;6.798;2023-02-28T06:53:17;-4.40;99.90
21830;DHT22;11077;50.264;6.798;2023-02-28T07:23:13;-3.40;99.90
21830;DHT22;11077;50.264;6.798;2023-02-28T07:25:40;-3.20;99.90
21830;DHT22;11077;50.264;6.798;2023-02-28T07:28:07;-3.10;99.90
21830;DHT22;11077;50.264;6.798;2023-02-28T07:30:35;-2.90;99.90
21830;DHT22;11077;50.264;6.798;2023-02-28T07:33:02;-2.80;99.90
21830;DHT22;11077;50.264;6.798;2023-02-28T07:35:29;-2.70;99.90
21830;DHT22;11077;50.264;6.798;2023-02-28T07:37:57;-2.50;99.90
21830;DHT22;11077;50.264;6.798;2023-02-28T07:40:26;-2.50;99.90
21830;DHT22;11077;50.264;6.798;2023-02-28T07:42:54;-2.30;99.90
21830;DHT22;11077;50.264;6.798;2023-02-28T07:45:21;-2.20;99.90
21830;DHT22;11077;50.264;6.798;2023-02-28T07:47:48;-2.10;99.90
21830;DHT22;11077;50.264;6.798;2023-02-28T07:50:16;-2.10;99.90
21830;DHT22;11077;50.264;6.798;2023-02-28T07:52:43;-2.10;99.90
21830;DHT22;11077;50.264;6.798;2023-02-28T07:55:10;-2.00;99.90
21830;DHT22;11077;50.264;6.798;2023-02-28T07:57:39;-2.00;99.90
21830;DHT22;11077;50.264;6.798;2023-02-28T08:00:09;-2.00;99.90
21830;DHT22;11077;50.264;6.798;2023-02-28T08:02:40;-2.00;99.90
21830;DHT22;11077;50.264;6.798;2023-02-28T08:05:07;-2.00;99.90
21830;DHT22;11077;50.264;6.798;2023-02-28T08:07:35;-2.10;99.90
21830;DHT22;11077;50.264;6.798;2023-02-28T08:10:02;-2.00;99.90
21830;DHT22;11077;50.264;6.798;2023-02-28T08:12:31;-2.00;99.90
21830;DHT22;11077;50.264;6.798;2023-02-28T08:15:00;-1.90;99.90
21830;DHT22;11077;50.264;6.798;2023-02-28T08:17:27;-1.80;99.90
21830;DHT22;11077;50.264;6.798;2023-02-28T08:19:54;-1.70;99.90
21830;DHT22;11077;50.264;6.798;2023-02-28T08:22:21;-1.60;99.90
21830;DHT22;11077;50.264;6.798;2023-02-28T08:24:48;-1.50;99.90
21830;DHT22;11077;50.264;6.798;2023-02-28T08:27:16;-1.30;99.90
21830;DHT22;11077;50.264;6.798;2023-02-28T08:29:45;-1.10;99.90
21830;DHT22;11077;50.264;6.798;2023-02-28T08:32:13;-0.90;99.90
21830;DHT22;11077;50.264;6.798;2023-02-28T08:34:40;-0.70;99.90
21830;DHT22;11077;50.264;6.798;2023-02-28T08:37:08;-0.50;99.90
21830;DHT22;11077;50.264;6.798;2023-02-28T08:39:35;-0.30;99.90
21830;DHT22;11077;50.264;6.798;2023-02-28T08:42:03;-0.20;99.90
21830;DHT22;11077;50.264;6.798;2023-02-28T08:44:30;-0.10;99.90
21830;DHT22;11077;50.264;6.798;2023-02-28T08:46:58;0.10;99.90
21830;DHT22;11077;50.264;6.798;2023-02-28T08:49:26;0.30;99.90
21830;DHT22;11077;50.264;6.798;2023-02-28T08:51:54;0.40;99.90
21830;DHT22;11077;50.264;6.798;2023-02-28T08:54:22;0.40;99.90
21830;DHT22;11077;50.264;6.798;2023-02-28T08:56:50;0.60;99.90
21830;DHT22;11077;50.264;6.798;2023-02-28T08:59:17;0.50;99.90
21830;DHT22;11077;50.264;6.798;2023-02-28T09:01:45;0.50;99.90
21830;DHT22;11077;50.264;6.798;2023-02-28T09:04:12;0.50;99.90
21830;DHT22;11077;50.264;6.798;2023-02-28T09:06:41;0.60;99.90
21830;DHT22;11077;50.264;6.798;2023-02-28T09:09:11;0.70;99.90
21830;DHT22;11077;50.264;6.798;2023-02-28T09:11:38;0.60;99.90
21830;DHT22;11077;50.264;6.798;2023-02-28T09:14:06;0.60;99.90
21830;DHT22;11077;50.264;6.798;2023-02-28T09:16:33;0.70;99.90
21830;DHT22;11077;50.264;6.798;2023-02-28T09:19:01;0.70;99.90
21830;DHT22;11077;50.264;6.798;2023-02-28T09:21:29;0.80;99.90
21830;DHT22;11077;50.264;6.798;2023-02-28T09:23:58;0.80;99.90
21830;DHT22;11077;50.264;6.798;2023-02-28T09:26:27;0.60;99.90
21830;DHT22;11077;50.264;6.798;2023-02-28T09:28:55;0.50;99.90
21830;DHT22;11077;50.264;6.798;2023-02-28T09:31:27;0.50;99.90
21830;DHT22;11077;50.264;6.798;2023-02-28T09:33:56;0.60;99.90
21830;DHT22;11077;50.264;6.798;2023-02-28T09:36:25;0.70;99.90
21830;DHT22;11077;50.264;6.798;2023-02-28T09:38:54;0.80;99.90
21830;DHT22;11077;50.264;6.798;2023-02-28T09:41:24;0.70;99.90
21830;DHT22;11077;50.264;6.798;2023-02-28T09:43:56;0.70;99.90
21830;DHT22;11077;50.264;6.798;2023-02-28T09:46:33;0.90;99.90
21830;DHT22;11077;50.264;6.798;2023-02-28T09:49:05;1.20;99.90
21830;DHT22;11077;50.264;6.798;2023-02-28T09:51:40;1.50;99.90
21830;DHT22;11077;50.264;6.798;2023-02-28T09:54:14;1.60;99.90
21830;DHT22;11077;50.264;6.798;2023-02-28T09:56:49;1.60;99.90
21830;DHT22;11077;50.264;6.798;2023-02-28T09:59:30;1.70;99.90
21830;DHT22;11077;50.264;6.798;2023-02-28T10:02:08;1.80;99.90
21830;DHT22;11077;50.264;6.798;2023-02-28T10:04:43;1.70;99.90
21830;DHT22;11077;50.264;6.798;2023-02-28T10:07:37;1.60;99.90
21830;DHT22;11077;50.264;6.798;2023-02-28T10:10:20;1.60;99.90
21830;DHT22;11077;50.264;6.798;2023-02-28T10:12:53;1.70;99.90
21830;DHT22;11077;50.264;6.798;2023-02-28T10:15:24;1.80;99.90
21830;DHT22;11077;50.264;6.798;2023-02-28T10:17:56;1.80;99.90
21830;DHT22;11077;50.264;6.798;2023-02-28T10:20:26;1.60;99.90
21830;DHT22;11077;50.264;6.798;2023-02-28T10:23:02;1.40;99.90
21830;DHT22;11077;50.264;6.798;2023-02-28T10:25:35;1.30;99.90
21830;DHT22;11077;50.264;6.798;2023-02-28T10:28:10;1.10;99.90
21830;DHT22;11077;50.264;6.798;2023-02-28T10:30:41;1.10;99.90
21830;DHT22;11077;50.264;6.798;2023-02-28T10:33:19;1.00;99.90
21830;DHT22;11077;50.264;6.798;2023-02-28T10:35:48;1.00;99.90
21830;DHT22;11077;50.264;6.798;2023-02-28T10:38:18;1.10;99.90
21830;DHT22;11077;50.264;6.798;2023-02-28T10:40:45;1.30;99.90
21830;DHT22;11077;50.264;6.798;2023-02-28T10:43:21;1.50;99.90
21830;DHT22;11077;50.264;6.798;2023-02-28T10:45:56;1.70;99.90
21830;DHT22;11077;50.264;6.798;2023-02-28T10:48:32;1.70;99.90
21830;DHT22;11077;50.264;6.798;2023-02-28T10:50:59;1.60;99.90
21830;DHT22;11077;50.264;6.798;2023-02-28T10:53:33;1.40;99.90
21830;DHT22;11077;50.264;6.798;2023-02-28T10:56:02;1.20;99.90
21830;DHT22;11077;50.264;6.798;2023-02-28T10:58:50;1.20;99.90
21830;DHT22;11077;50.264;6.798;2023-02-28T11:01:19;1.10;99.90
21830;DHT22;11077;50.264;6.798;2023-02-28T11:03:47;1.00;99.90
21830;DHT22;11077;50.264;6.798;2023-02-28T11:06:17;1.10;99.90
21830;DHT22;11077;50.264;6.798;2023-02-28T11:08:47;1.30;99.90
21830;DHT22;11077;50.264;6.798;2023-02-28T11:11:17;1.30;99.90
21830;DHT22;11077;50.264;6.798;2023-02-28T11:13:47;1.40;99.90
21830;DHT22;11077;50.264;6.798;2023-02-28T11:16:16;1.40;99.90
21830;DHT22;11077;50.264;6.798;2023-02-28T11:18:47;1.60;99.90
21830;DHT22;11077;50.264;6.798;2023-02-28T11:21:20;1.70;99.90
21830;DHT22;11077;50.264;6.798;2023-02-28T11:23:52;1.60;99.90
21830;DHT22;11077;50.264;6.798;2023-02-28T11:26:38;1.70;99.90
21830;DHT22;11077;50.264;6.798;2023-02-28T11:29:17;1.60;99.90
21830;DHT22;11077;50.264;6.798;2023-02-28T11:32:05;1.60;99.90
21830;DHT22;11077;50.264;6.798;2023-02-28T11:34:38;1.60;99.90
21830;DHT22;11077;50.264;6.798;2023-02-28T11:37:11;1.50;99.90
21830;DHT22;11077;50.264;6.798;2023-02-28T11:39:39;1.50;99.90
21830;DHT22;11077;50.264;6.798;2023-02-28T11:42:19;1.50;99.90
21830;DHT22;11077;50.264;6.798;2023-02-28T11:45:03;1.50;99.90
21830;DHT22;11077;50.264;6.798;2023-02-28T11:47:37;1.60;99.90
21830;DHT22;11077;50.264;6.798;2023-02-28T11:50:20;1.50;99.90
21830;DHT22;11077;50.264;6.798;2023-02-28T11:52:53;1.40;99.90
21830;DHT22;11077;50.264;6.798;2023-02-28T11:55:25;1.40;99.90
21830;DHT22;11077;50.264;6.798;2023-02-28T11:58:05;1.40;99.90
21830;DHT22;11077;50.264;6.798;2023-02-28T12:00:50;1.60;99.90
21830;DHT22;11077;50.264;6.798;2023-02-28T12:03:30;1.60;99.90
21830;DHT22;11077;50.264;6.798;2023-02-28T12:06:07;1.50;99.90
21830;DHT22;11077;50.264;6.798;2023-02-28T12:08:47;1.50;99.90
21830;DHT22;11077;50.264;6.798;2023-02-28T12:11:24;1.60;99.90
21830;DHT22;11077;50.264;6.798;2023-02-28T12:14:03;1.60;99.90
21830;DHT22;11077;50.264;6.798;2023-02-28T12:16:50;1.70;99.90
21830;DHT22;11077;50.264;6.798;2023-02-28T12:19:22;1.70;99.90
21830;DHT22;11077;50.264;6.798;2023-02-28T12:22:09;1.70;99.90
21830;DHT22;11077;50.264;6.798;2023-02-28T12:24:55;1.70;99.90
21830;DHT22;11077;50.264;6.798;2023-02-28T12:27:28;1.80;99.90
21830;DHT22;11077;50.264;6.798;2023-02-28T12:30:00;2.00;99.90
21830;DHT22;11077;50.264;6.798;2023-02-28T12:32:33;2.20;99.90
21830;DHT22;11077;50.264;6.798;2023-02-28T12:35:06;2.20;99.90
21830;DHT22;11077;50.264;6.798;2023-02-28T12:37:40;2.30;99.90
21830;DHT22;11077;50.264;6.798;2023-02-28T12:40:12;2.40;99.90
21830;DHT22;11077;50.264;6.798;2023-02-28T12:42:44;2.30;99.90
21830;DHT22;11077;50.264;6.798;2023-02-28T12:45:18;2.30;99.90
21830;DHT22;11077;50.264;6.798;2023-02-28T12:47:52;2.40;99.90
21830;DHT22;11077;50.264;6.798;2023-02-28T12:50:23;2.60;99.90
21830;DHT22;11077;50.264;6.798;2023-02-28T12:52:54;2.70;99.90
21830;DHT22;11077;50.264;6.798;2023-02-28T12:55:29;2.80;99.90
21830;DHT22;11077;50.264;6.798;2023-02-28T12:58:05;2.90;99.90
21830;DHT22;11077;50.264;6.798;2023-02-28T13:00:38;2.90;99.90
21830;DHT22;11077;50.264;6.798;2023-02-28T13:03:32;3.00;99.90
21830;DHT22;11077;50.264;6.798;2023-02-28T13:06:23;3.00;99.90
21830;DHT22;11077;50.264;6.798;2023-02-28T13:09:04;3.00;99.90
21830;DHT22;11077;50.264;6.798;2023-02-28T13:11:33;3.00;99.90
21830;DHT22;11077;50.264;6.798;2023-02-28T13:14:13;3.00;99.90
21830;DHT22;11077;50.264;6.798;2023-02-28T13:17:02;3.10;99.90
21830;DHT22;11077;50.264;6.798;2023-02-28T13:19:39;3.10;99.90
21830;DHT22;11077;50.264;6.798;2023-02-28T13:22:18;3.20;99.90
21830;DHT22;11077;50.264;6.798;2023-02-28T13:24:48;3.30;99.90
21830;DHT22;11077;50.264;6.798;2023-02-28T13:27:39;3.30;99.90
21830;DHT22;11077;50.264;6.798;2023-02-28T13:33:27;3.20;99.90
21830;DHT22;11077;50.264;6.798;2023-02-28T13:36:24;3.20;99.90
21830;DHT22;11077;50.264;6.798;2023-02-28T13:38:52;3.10;99.90
21830;DHT22;11077;50.264;6.798;2023-02-28T13:41:53;2.90;99.90
21830;DHT22;11077;50.264;6.798;2023-02-28T13:44:21;2.80;99.90
21830;DHT22;11077;50.264;6.798;2023-02-28T13:47:19;2.80;99.90
21830;DHT22;11077;50.264;6.798;2023-02-28T13:49:47;2.70;99.90
21830;DHT22;11077;50.264;6.798;2023-02-28T13:52:19;2.70;99.90
21830;DHT22;11077;50.264;6.798;2023-02-28T13:54:56;2.70;99.90
21830;DHT22;11077;50.264;6.798;2023-02-28T13:57:35;2.60;99.90
21830;DHT22;11077;50.264;6.798;2023-02-28T14:00:19;2.50;99.90
21830;DHT22;11077;50.264;6.798;2023-02-28T14:03:06;2.50;99.90
21830;DHT22;11077;50.264;6.798;2023-02-28T14:05:37;2.40;99.90
21830;DHT22;11077;50.264;6.798;2023-02-28T14:08:11;2.40;99.90
21830;DHT22;11077;50.264;6.798;2023-02-28T14:10:44;2.40;99.90
21830;DHT22;11077;50.264;6.798;2023-02-28T14:15:57;2.30;99.90
21830;DHT22;11077;50.264;6.798;2023-02-28T14:18:31;2.30;99.90
21830;DHT22;11077;50.264;6.798;2023-02-28T14:21:09;2.30;99.90
21830;DHT22;11077;50.264;6.798;2023-02-28T14:24:16;2.30;99.90
21830;DHT22;11077;50.264;6.798;2023-02-28T14:27:11;2.30;99.90
21830;DHT22;11077;50.264;6.798;2023-02-28T14:30:19;2.30;99.90
21830;DHT22;11077;50.264;6.798;2023-02-28T14:33:01;2.30;99.90
21830;DHT22;11077;50.264;6.798;2023-02-28T14:35:54;2.30;99.90
21830;DHT22;11077;50.264;6.798;2023-02-28T14:38:26;2.20;99.90
21830;DHT22;11077;50.264;6.798;2023-02-28T14:40:58;2.10;99.90
21830;DHT22;11077;50.264;6.798;2023-02-28T14:43:28;2.00;99.90
21830;DHT22;11077;50.264;6.798;2023-02-28T14:45:57;2.10;99.90
21830;DHT22;11077;50.264;6.798;2023-02-28T14:48:26;2.10;99.90
21830;DHT22;11077;50.264;6.798;2023-02-28T14:50:55;2.10;99.90
21830;DHT22;11077;50.264;6.798;2023-02-28T14:53:26;2.10;99.90
21830;DHT22;11077;50.264;6.798;2023-02-28T14:55:56;2.10;99.90
21830;DHT22;11077;50.264;6.798;2023-02-28T14:58:25;2.10;99.90
21830;DHT22;11077;50.264;6.798;2023-02-28T15:00:54;2.10;99.90
21830;DHT22;11077;50.264;6.798;2023-02-28T15:03:24;2.10;99.90
21830;DHT22;11077;50.264;6.798;2023-02-28T15:05:53;2.10;99.90
21830;DHT22;11077;50.264;6.798;2023-02-28T15:08:20;2.10;99.90
21830;DHT22;11077;50.264;6.798;2023-02-28T15:10:52;2.00;99.90
21830;DHT22;11077;50.264;6.798;2023-02-28T15:13:22;2.00;99.90
21830;DHT22;11077;50.264;6.798;2023-02-28T15:15:53;2.00;99.90
21830;DHT22;11077;50.264;6.798;2023-02-28T15:18:28;2.00;99.90
21830;DHT22;11077;50.264;6.798;2023-02-28T15:21:00;1.90;99.90
21830;DHT22;11077;50.264;6.798;2023-02-28T15:23:29;1.90;99.90
21830;DHT22;11077;50.264;6.798;2023-02-28T15:25:57;1.80;99.90
21830;DHT22;11077;50.264;6.798;2023-02-28T15:28:27;1.80;99.90
21830;DHT22;11077;50.264;6.798;2023-02-28T15:30:58;1.80;99.90
21830;DHT22;11077;50.264;6.798;2023-02-28T15:33:28;1.80;99.90
21830;DHT22;11077;50.264;6.798;2023-02-28T15:36:12;1.80;99.90
21830;DHT22;11077;50.264;6.798;2023-02-28T15:38:40;1.80;99.90
21830;DHT22;11077;50.264;6.798;2023-02-28T15:41:24;1.80;99.90
21830;DHT22;11077;50.264;6.798;2023-02-28T15:47:02;1.70;99.90
21830;DHT22;11077;50.264;6.798;2023-02-28T15:49:40;1.60;99.90
21830;DHT22;11077;50.264;6.798;2023-02-28T15:52:15;1.60;99.90
21830;DHT22;11077;50.264;6.798;2023-02-28T15:54:44;1.60;99.90
21830;DHT22;11077;50.264;6.798;2023-02-28T15:57:17;1.50;99.90
21830;DHT22;11077;50.264;6.798;2023-02-28T15:59:50;1.60;99.90
21830;DHT22;11077;50.264;6.798;2023-02-28T16:02:22;1.60;99.90
21830;DHT22;11077;50.264;6.798;2023-02-28T16:05:02;1.60;99.90
21830;DHT22;11077;50.264;6.798;2023-02-28T16:07:41;1.50;99.90
21830;DHT22;11077;50.264;6.798;2023-02-28T16:10:10;1.50;99.90
21830;DHT22;11077;50.264;6.798;2023-02-28T16:12:40;1.50;99.90
21830;DHT22;11077;50.264;6.798;2023-02-28T16:15:18;1.50;99.90
21830;DHT22;11077;50.264;6.798;2023-02-28T16:17:47;1.50;99.90
21830;DHT22;11077;50.264;6.798;2023-02-28T16:20:15;1.40;99.90
21830;DHT22;11077;50.264;6.798;2023-02-28T16:22:44;1.40;99.90
21830;DHT22;11077;50.264;6.798;2023-02-28T16:25:13;1.40;99.90
21830;DHT22;11077;50.264;6.798;2023-02-28T16:27:41;1.30;99.90
21830;DHT22;11077;50.264;6.798;2023-02-28T16:30:18;1.30;99.90
21830;DHT22;11077;50.264;6.798;2023-02-28T16:32:47;1.30;99.90
21830;DHT22;11077;50.264;6.798;2023-02-28T16:35:15;1.30;99.90
21830;DHT22;11077;50.264;6.798;2023-02-28T16:37:43;1.20;99.90
21830;DHT22;11077;50.264;6.798;2023-02-28T16:40:14;1.20;99.90
21830;DHT22;11077;50.264;6.798;2023-02-28T16:42:42;1.20;99.90
21830;DHT22;11077;50.264;6.798;2023-02-28T16:45:23;1.10;99.90
21830;DHT22;11077;50.264;6.798;2023-02-28T16:47:53;1.10;99.90
21830;DHT22;11077;50.264;6.798;2023-02-28T16:50:22;1.00;99.90
21830;DHT22;11077;50.264;6.798;2023-02-28T16:52:50;1.00;99.90
21830;DHT22;11077;50.264;6.798;2023-02-28T16:55:20;0.90;99.90
21830;DHT22;11077;50.264;6.798;2023-02-28T16:57:50;0.90;99.90
21830;DHT22;11077;50.264;6.798;2023-02-28T17:00:19;0.80;99.90
21830;DHT22;11077;50.264;6.798;2023-02-28T17:02:46;0.80;99.90
21830;DHT22;11077;50.264;6.798;2023-02-28T17:05:15;0.70;99.90
21830;DHT22;11077;50.264;6.798;2023-02-28T17:07:43;0.70;99.90
21830;DHT22;11077;50.264;6.798;2023-02-28T17:10:14;0.60;99.90
21830;DHT22;11077;50.264;6.798;2023-02-28T17:12:42;0.60;99.90
21830;DHT22;11077;50.264;6.798;2023-02-28T17:15:10;0.50;99.90
21830;DHT22;11077;50.264;6.798;2023-02-28T17:17:38;0.40;99.90
21830;DHT22;11077;50.264;6.798;2023-02-28T17:20:09;0.40;99.90
21830;DHT22;11077;50.264;6.798;2023-02-28T17:22:39;0.40;99.90
21830;DHT22;11077;50.264;6.798;2023-02-28T17:25:08;0.30;99.90
21830;DHT22;11077;50.264;6.798;2023-02-28T17:27:37;0.30;99.90
21830;DHT22;11077;50.264;6.798;2023-02-28T17:30:13;0.30;99.90
21830;DHT22;11077;50.264;6.798;2023-02-28T17:32:41;0.20;99.90
21830;DHT22;11077;50.264;6.798;2023-02-28T17:35:09;0.20;99.90
21830;DHT22;11077;50.264;6.798;2023-02-28T17:37:37;0.10;99.90
21830;DHT22;11077;50.264;6.798;2023-02-28T17:40:09;0.10;99.90
21830;DHT22;11077;50.264;6.798;2023-02-28T17:42:39;0.10;99.90
21830;DHT22;11077;50.264;6.798;2023-02-28T17:45:07;0.00;99.90
21830;DHT22;11077;50.264;6.798;2023-02-28T17:47:34;0.00;99.90
21830;DHT22;11077;50.264;6.798;2023-02-28T17:50:02;0.00;99.90
21830;DHT22;11077;50.264;6.798;2023-02-28T17:52:29;0.00;99.90
21830;DHT22;11077;50.264;6.798;2023-02-28T17:54:57;-0.10;99.90
21830;DHT22;11077;50.264;6.798;2023-02-28T17:57:25;-0.20;99.90
21830;DHT22;11077;50.264;6.798;2023-02-28T17:59:53;-0.20;99.90